sensor_id;sensor_type;location;lat;lon;timestamp;P1;P2;P0
46681;PMS5003;34101;53.430;-2.224;2023-06-22T00:02:25;7;7;
46681;PMS5003;34101;53.430;-2.224;2023-06-22T00:04:53;6;6;
46681;PMS5003;34101;53.430;-2.224;2023-06-22T00:07:21;3;3;
46681;PMS5003;34101;53.430;-2.224;2023-06-22T00:09:48;8;8;
46681;PMS5003;34101;53.430;-2.224;2023-06-22T00:12:16;7;7;
46681;PMS5003;34101;53.430;-2.224;2023-06-22T00:14:43;7;7;
46681;PMS5003;34101;53.430;-2.224;2023-06-22T00:17:11;8;8;
46681;PMS5003;34101;53.430;-2.224;2023-06-22T00:19:39;9;7;
46681;PMS5003;34101;53.430;-2.224;2023-06-22T00:22:07;8;7;
46681;PMS5003;34101;53.430;-2.224;2023-06-22T00:24:35;8;8;
46681;PMS5003;34101;53.430;-2.224;2023-06-22T00:27:03;7;7;
46681;PMS5003;34101;53.430;-2.224;2023-06-22T00:29:32;8;8;
46681;PMS5003;34101;53.430;-2.224;2023-06-22T00:32:00;7;7;
46681;PMS5003;34101;53.430;-2.224;2023-06-22T00:34:28;7;7;
46681;PMS5003;34101;53.430;-2.224;2023-06-22T00:36:55;7;7;
46681;PMS5003;34101;53.430;-2.224;2023-06-22T00:39:23;6;6;
46681;PMS5003;34101;53.430;-2.224;2023-06-22T00:41:50;9;8;
46681;PMS5003;34101;53.430;-2.224;2023-06-22T00:44:18;9;9;
46681;PMS5003;34101;53.430;-2.224;2023-06-22T00:46:46;9;8;
46681;PMS5003;34101;53.430;-2.224;2023-06-22T00:49:14;9;9;
46681;PMS5003;34101;53.430;-2.224;2023-06-22T00:51:41;6;6;
46681;PMS5003;34101;53.430;-2.224;2023-06-22T00:54:09;9;9;
46681;PMS5003;34101;53.430;-2.224;2023-06-22T00:56:37;10;10;
46681;PMS5003;34101;53.430;-2.224;2023-06-22T00:59:04;11;9;
46681;PMS5003;34101;53.430;-2.224;2023-06-22T01:01:33;9;9;
46681;PMS5003;34101;53.430;-2.224;2023-06-22T01:04:00;9;9;
46681;PMS5003;34101;53.430;-2.224;2023-06-22T01:06:31;7;7;
46681;PMS5003;34101;53.430;-2.224;2023-06-22T01:09:06;9;9;
46681;PMS5003;34101;53.430;-2.224;2023-06-22T01:11:40;9;9;
46681;PMS5003;34101;53.430;-2.224;2023-06-22T01:14:12;11;9;
46681;PMS5003;34101;53.430;-2.224;2023-06-22T01:16:45;11;11;
46681;PMS5003;34101;53.430;-2.224;2023-06-22T01:19:34;10;9;
46681;PMS5003;34101;53.430;-2.224;2023-06-22T01:22:06;12;12;
46681;PMS5003;34101;53.430;-2.224;2023-06-22T01:24:40;12;12;
46681;PMS5003;34101;53.430;-2.224;2023-06-22T01:27:17;12;12;
46681;PMS5003;34101;53.430;-2.224;2023-06-22T01:29:56;15;14;
46681;PMS5003;34101;53.430;-2.224;2023-06-22T01:32:25;14;11;
46681;PMS5003;34101;53.430;-2.224;2023-06-22T01:34:55;13;13;
46681;PMS5003;34101;53.430;-2.224;2023-06-22T01:37:24;12;12;
46681;PMS5003;34101;53.430;-2.224;2023-06-22T01:39:52;12;12;
46681;PMS5003;34101;53.430;-2.224;2023-06-22T01:42:21;11;9;
46681;PMS5003;34101;53.430;-2.224;2023-06-22T01:44:51;12;12;
46681;PMS5003;34101;53.430;-2.224;2023-06-22T01:47:20;13;13;
46681;PMS5003;34101;53.430;-2.224;2023-06-22T01:49:48;13;12;
46681;PMS5003;34101;53.430;-2.224;2023-06-22T01:52:15;12;11;
46681;PMS5003;34101;53.430;-2.224;2023-06-22T01:54:44;12;12;
46681;PMS5003;34101;53.430;-2.224;2023-06-22T01:57:11;10;10;
46681;PMS5003;34101;53.430;-2.224;2023-06-22T01:59:42;11;11;
46681;PMS5003;34101;53.430;-2.224;2023-06-22T02:02:15;12;11;
46681;PMS5003;34101;53.430;-2.224;2023-06-22T02:04:46;10;10;
46681;PMS5003;34101;53.430;-2.224;2023-06-22T02:07:19;12;12;
46681;PMS5003;34101;53.430;-2.224;2023-06-22T02:09:51;11;11;
46681;PMS5003;34101;53.430;-2.224;2023-06-22T02:12:22;8;8;
46681;PMS5003;34101;53.430;-2.224;2023-06-22T02:14:53;12;11;
46681;PMS5003;34101;53.430;-2.224;2023-06-22T02:17:20;7;6;
46681;PMS5003;34101;53.430;-2.224;2023-06-22T02:19:49;12;12;
46681;PMS5003;34101;53.430;-2.224;2023-06-22T02:22:18;8;8;
46681;PMS5003;34101;53.430;-2.224;2023-06-22T02:24:46;8;8;
46681;PMS5003;34101;53.430;-2.224;2023-06-22T02:27:13;8;8;
46681;PMS5003;34101;53.430;-2.224;2023-06-22T02:29:40;9;8;
46681;PMS5003;34101;53.430;-2.224;2023-06-22T02:32:09;10;10;
46681;PMS5003;34101;53.430;-2.224;2023-06-22T02:34:37;8;8;
46681;PMS5003;34101;53.430;-2.224;2023-06-22T02:37:04;9;9;
46681;PMS5003;34101;53.430;-2.224;2023-06-22T02:39:31;8;8;
46681;PMS5003;34101;53.430;-2.224;2023-06-22T02:41:59;8;7;
46681;PMS5003;34101;53.430;-2.224;2023-06-22T02:44:27;8;8;
46681;PMS5003;34101;53.430;-2.224;2023-06-22T02:46:55;10;8;
46681;PMS5003;34101;53.430;-2.224;2023-06-22T02:49:23;11;11;
46681;PMS5003;34101;53.430;-2.224;2023-06-22T02:51:50;11;11;
46681;PMS5003;34101;53.430;-2.224;2023-06-22T02:54:18;10;10;
46681;PMS5003;34101;53.430;-2.224;2023-06-22T02:56:46;10;10;
46681;PMS5003;34101;53.430;-2.224;2023-06-22T02:59:14;10;8;
46681;PMS5003;34101;53.430;-2.224;2023-06-22T03:01:41;8;8;
46681;PMS5003;34101;53.430;-2.224;2023-06-22T03:04:09;8;8;
46681;PMS5003;34101;53.430;-2.224;2023-06-22T03:06:36;9;9;
46681;PMS5003;34101;53.430;-2.224;2023-06-22T03:09:04;10;10;
46681;PMS5003;34101;53.430;-2.224;2023-06-22T03:11:32;12;10;
46681;PMS5003;34101;53.430;-2.224;2023-06-22T03:14:01;11;11;
46681;PMS5003;34101;53.430;-2.224;2023-06-22T03:16:29;13;12;
46681;PMS5003;34101;53.430;-2.224;2023-06-22T03:18:56;10;10;
46681;PMS5003;34101;53.430;-2.224;2023-06-22T03:21:25;12;11;
46681;PMS5003;34101;53.430;-2.224;2023-06-22T03:23:54;10;8;
46681;PMS5003;34101;53.430;-2.224;2023-06-22T03:26:21;10;10;
46681;PMS5003;34101;53.430;-2.224;2023-06-22T03:28:49;11;11;
46681;PMS5003;34101;53.430;-2.224;2023-06-22T03:31:16;10;9;
46681;PMS5003;34101;53.430;-2.224;2023-06-22T03:33:44;10;10;
46681;PMS5003;34101;53.430;-2.224;2023-06-22T03:36:12;8;8;
46681;PMS5003;34101;53.430;-2.224;2023-06-22T03:38:39;9;9;
46681;PMS5003;34101;53.430;-2.224;2023-06-22T03:41:07;10;10;
46681;PMS5003;34101;53.430;-2.224;2023-06-22T03:43:34;10;8;
46681;PMS5003;34101;53.430;-2.224;2023-06-22T03:46:02;9;9;
46681;PMS5003;34101;53.430;-2.224;2023-06-22T03:48:29;9;9;
46681;PMS5003;34101;53.430;-2.224;2023-06-22T03:50:58;11;9;
46681;PMS5003;34101;53.430;-2.224;2023-06-22T03:53:26;11;10;
46681;PMS5003;34101;53.430;-2.224;2023-06-22T03:55:53;8;8;
46681;PMS5003;34101;53.430;-2.224;2023-06-22T03:58:22;9;9;
46681;PMS5003;34101;53.430;-2.224;2023-06-22T04:00:50;9;9;
46681;PMS5003;34101;53.430;-2.224;2023-06-22T04:03:19;9;9;
46681;PMS5003;34101;53.430;-2.224;2023-06-22T04:05:47;16;14;
46681;PMS5003;34101;53.430;-2.224;2023-06-22T04:08:15;10;10;
46681;PMS5003;34101;53.430;-2.224;2023-06-22T04:10:42;9;9;
46681;PMS5003;34101;53.430;-2.224;2023-06-22T04:13:10;10;9;
46681;PMS5003;34101;53.430;-2.224;2023-06-22T04:15:37;13;13;
46681;PMS5003;34101;53.430;-2.224;2023-06-22T04:18:05;12;12;
46681;PMS5003;34101;53.430;-2.224;2023-06-22T04:20:32;10;9;
46681;PMS5003;34101;53.430;-2.224;2023-06-22T04:22:59;11;11;
46681;PMS5003;34101;53.430;-2.224;2023-06-22T04:25:27;7;7;
46681;PMS5003;34101;53.430;-2.224;2023-06-22T04:27:54;10;10;
46681;PMS5003;34101;53.430;-2.224;2023-06-22T04:30:22;11;11;
46681;PMS5003;34101;53.430;-2.224;2023-06-22T04:32:49;10;10;
46681;PMS5003;34101;53.430;-2.224;2023-06-22T04:35:17;9;9;
46681;PMS5003;34101;53.430;-2.224;2023-06-22T04:37:45;12;11;
46681;PMS5003;34101;53.430;-2.224;2023-06-22T04:40:12;9;9;
46681;PMS5003;34101;53.430;-2.224;2023-06-22T04:42:40;9;9;
46681;PMS5003;34101;53.430;-2.224;2023-06-22T04:45:07;9;9;
46681;PMS5003;34101;53.430;-2.224;2023-06-22T04:47:36;9;9;
46681;PMS5003;34101;53.430;-2.224;2023-06-22T04:50:03;9;9;
46681;PMS5003;34101;53.430;-2.224;2023-06-22T04:52:32;10;10;
46681;PMS5003;34101;53.430;-2.224;2023-06-22T04:54:59;9;8;
46681;PMS5003;34101;53.430;-2.224;2023-06-22T04:57:27;11;11;
46681;PMS5003;34101;53.430;-2.224;2023-06-22T04:59:55;10;10;
46681;PMS5003;34101;53.430;-2.224;2023-06-22T05:02:22;14;11;
46681;PMS5003;34101;53.430;-2.224;2023-06-22T05:04:50;11;11;
46681;PMS5003;34101;53.430;-2.224;2023-06-22T05:07:17;10;9;
46681;PMS5003;34101;53.430;-2.224;2023-06-22T05:09:45;9;9;
46681;PMS5003;34101;53.430;-2.224;2023-06-22T05:12:13;9;8;
46681;PMS5003;34101;53.430;-2.224;2023-06-22T05:14:40;8;8;
46681;PMS5003;34101;53.430;-2.224;2023-06-22T05:17:07;9;9;
46681;PMS5003;34101;53.430;-2.224;2023-06-22T05:19:35;10;10;
46681;PMS5003;34101;53.430;-2.224;2023-06-22T05:22:02;10;10;
46681;PMS5003;34101;53.430;-2.224;2023-06-22T05:24:31;9;9;
46681;PMS5003;34101;53.430;-2.224;2023-06-22T05:26:58;10;10;
46681;PMS5003;34101;53.430;-2.224;2023-06-22T05:29:25;12;12;
46681;PMS5003;34101;53.430;-2.224;2023-06-22T05:31:53;11;9;
46681;PMS5003;34101;53.430;-2.224;2023-06-22T05:34:21;10;8;
46681;PMS5003;34101;53.430;-2.224;2023-06-22T05:36:49;10;10;
46681;PMS5003;34101;53.430;-2.224;2023-06-22T05:39:16;12;12;
46681;PMS5003;34101;53.430;-2.224;2023-06-22T05:41:45;11;11;
46681;PMS5003;34101;53.430;-2.224;2023-06-22T05:44:13;12;12;
46681;PMS5003;34101;53.430;-2.224;2023-06-22T05:46:40;12;11;
46681;PMS5003;34101;53.430;-2.224;2023-06-22T05:49:09;11;11;
46681;PMS5003;34101;53.430;-2.224;2023-06-22T05:51:36;10;10;
46681;PMS5003;34101;53.430;-2.224;2023-06-22T05:54:04;12;12;
46681;PMS5003;34101;53.430;-2.224;2023-06-22T05:56:32;11;11;
46681;PMS5003;34101;53.430;-2.224;2023-06-22T05:59:05;7;7;
46681;PMS5003;34101;53.430;-2.224;2023-06-22T06:01:33;11;11;
46681;PMS5003;34101;53.430;-2.224;2023-06-22T06:04:01;13;13;
46681;PMS5003;34101;53.430;-2.224;2023-06-22T06:06:29;9;9;
46681;PMS5003;34101;53.430;-2.224;2023-06-22T06:08:57;11;11;
46681;PMS5003;34101;53.430;-2.224;2023-06-22T06:11:24;10;10;
46681;PMS5003;34101;53.430;-2.224;2023-06-22T06:13:52;13;12;
46681;PMS5003;34101;53.430;-2.224;2023-06-22T06:16:24;10;9;
46681;PMS5003;34101;53.430;-2.224;2023-06-22T06:18:52;12;12;
46681;PMS5003;34101;53.430;-2.224;2023-06-22T06:21:19;9;9;
46681;PMS5003;34101;53.430;-2.224;2023-06-22T06:23:47;13;12;
46681;PMS5003;34101;53.430;-2.224;2023-06-22T06:26:15;12;12;
46681;PMS5003;34101;53.430;-2.224;2023-06-22T06:28:42;12;12;
46681;PMS5003;34101;53.430;-2.224;2023-06-22T06:31:10;10;10;
46681;PMS5003;34101;53.430;-2.224;2023-06-22T06:33:37;11;11;
46681;PMS5003;34101;53.430;-2.224;2023-06-22T06:36:05;9;9;
46681;PMS5003;34101;53.430;-2.224;2023-06-22T06:38:33;10;10;
46681;PMS5003;34101;53.430;-2.224;2023-06-22T06:41:00;6;6;
46681;PMS5003;34101;53.430;-2.224;2023-06-22T06:43:28;11;10;
46681;PMS5003;34101;53.430;-2.224;2023-06-22T06:45:55;8;8;
46681;PMS5003;34101;53.430;-2.224;2023-06-22T06:48:23;8;8;
46681;PMS5003;34101;53.430;-2.224;2023-06-22T06:50:50;8;8;
46681;PMS5003;34101;53.430;-2.224;2023-06-22T06:53:18;9;9;
46681;PMS5003;34101;53.430;-2.224;2023-06-22T06:55:46;8;8;
46681;PMS5003;34101;53.430;-2.224;2023-06-22T06:58:13;7;7;
46681;PMS5003;34101;53.430;-2.224;2023-06-22T07:00:40;7;7;
46681;PMS5003;34101;53.430;-2.224;2023-06-22T07:03:09;8;8;
46681;PMS5003;34101;53.430;-2.224;2023-06-22T07:05:36;7;7;
46681;PMS5003;34101;53.430;-2.224;2023-06-22T07:08:04;9;9;
46681;PMS5003;34101;53.430;-2.224;2023-06-22T07:10:31;8;8;
46681;PMS5003;34101;53.430;-2.224;2023-06-22T07:12:59;10;9;
46681;PMS5003;34101;53.430;-2.224;2023-06-22T07:15:26;8;8;
46681;PMS5003;34101;53.430;-2.224;2023-06-22T07:17:54;8;8;
46681;PMS5003;34101;53.430;-2.224;2023-06-22T07:20:21;10;9;
46681;PMS5003;34101;53.430;-2.224;2023-06-22T07:22:48;10;9;
46681;PMS5003;34101;53.430;-2.224;2023-06-22T07:25:16;9;9;
46681;PMS5003;34101;53.430;-2.224;2023-06-22T07:27:56;11;9;
46681;PMS5003;34101;53.430;-2.224;2023-06-22T07:30:26;10;9;
46681;PMS5003;34101;53.430;-2.224;2023-06-22T07:32:55;10;9;
46681;PMS5003;34101;53.430;-2.224;2023-06-22T07:35:23;11;11;
46681;PMS5003;34101;53.430;-2.224;2023-06-22T07:37:50;11;9;
46681;PMS5003;34101;53.430;-2.224;2023-06-22T07:40:18;10;9;
46681;PMS5003;34101;53.430;-2.224;2023-06-22T07:42:46;9;8;
46681;PMS5003;34101;53.430;-2.224;2023-06-22T07:45:13;8;8;
46681;PMS5003;34101;53.430;-2.224;2023-06-22T07:47:41;9;9;
46681;PMS5003;34101;53.430;-2.224;2023-06-22T07:50:09;10;10;
46681;PMS5003;34101;53.430;-2.224;2023-06-22T07:52:36;9;7;
46681;PMS5003;34101;53.430;-2.224;2023-06-22T07:55:04;9;9;
46681;PMS5003;34101;53.430;-2.224;2023-06-22T07:57:32;8;8;
46681;PMS5003;34101;53.430;-2.224;2023-06-22T08:00:05;7;7;
46681;PMS5003;34101;53.430;-2.224;2023-06-22T08:02:33;10;8;
46681;PMS5003;34101;53.430;-2.224;2023-06-22T08:05:01;7;7;
46681;PMS5003;34101;53.430;-2.224;2023-06-22T08:07:33;9;9;
46681;PMS5003;34101;53.430;-2.224;2023-06-22T08:10:00;7;7;
46681;PMS5003;34101;53.430;-2.224;2023-06-22T08:12:28;9;9;
46681;PMS5003;34101;53.430;-2.224;2023-06-22T08:14:55;8;7;
46681;PMS5003;34101;53.430;-2.224;2023-06-22T08:17:23;8;8;
46681;PMS5003;34101;53.430;-2.224;2023-06-22T08:19:50;8;8;
46681;PMS5003;34101;53.430;-2.224;2023-06-22T08:22:18;9;9;
46681;PMS5003;34101;53.430;-2.224;2023-06-22T08:24:45;10;10;
46681;PMS5003;34101;53.430;-2.224;2023-06-22T08:27:13;10;10;
46681;PMS5003;34101;53.430;-2.224;2023-06-22T08:29:40;9;9;
46681;PMS5003;34101;53.430;-2.224;2023-06-22T08:32:08;9;9;
46681;PMS5003;34101;53.430;-2.224;2023-06-22T08:34:36;7;7;
46681;PMS5003;34101;53.430;-2.224;2023-06-22T08:37:04;11;9;
46681;PMS5003;34101;53.430;-2.224;2023-06-22T08:39:32;9;8;
46681;PMS5003;34101;53.430;-2.224;2023-06-22T08:41:59;10;10;
46681;PMS5003;34101;53.430;-2.224;2023-06-22T08:44:27;8;8;
46681;PMS5003;34101;53.430;-2.224;2023-06-22T08:46:55;13;11;
46681;PMS5003;34101;53.430;-2.224;2023-06-22T08:49:23;9;9;
46681;PMS5003;34101;53.430;-2.224;2023-06-22T08:51:55;10;9;
46681;PMS5003;34101;53.430;-2.224;2023-06-22T08:54:23;12;10;
46681;PMS5003;34101;53.430;-2.224;2023-06-22T08:56:50;9;8;
46681;PMS5003;34101;53.430;-2.224;2023-06-22T08:59:18;9;9;
46681;PMS5003;34101;53.430;-2.224;2023-06-22T09:01:45;10;8;
46681;PMS5003;34101;53.430;-2.224;2023-06-22T09:04:13;9;9;
46681;PMS5003;34101;53.430;-2.224;2023-06-22T09:06:42;12;12;
46681;PMS5003;34101;53.430;-2.224;2023-06-22T09:09:09;9;9;
46681;PMS5003;34101;53.430;-2.224;2023-06-22T09:11:36;8;8;
46681;PMS5003;34101;53.430;-2.224;2023-06-22T09:14:04;10;10;
46681;PMS5003;34101;53.430;-2.224;2023-06-22T09:16:31;10;9;
46681;PMS5003;34101;53.430;-2.224;2023-06-22T09:18:59;8;8;
46681;PMS5003;34101;53.430;-2.224;2023-06-22T09:21:26;12;12;
46681;PMS5003;34101;53.430;-2.224;2023-06-22T09:23:58;10;9;
46681;PMS5003;34101;53.430;-2.224;2023-06-22T09:26:26;9;9;
46681;PMS5003;34101;53.430;-2.224;2023-06-22T09:28:54;11;11;
46681;PMS5003;34101;53.430;-2.224;2023-06-22T09:31:21;10;10;
46681;PMS5003;34101;53.430;-2.224;2023-06-22T09:33:49;9;9;
46681;PMS5003;34101;53.430;-2.224;2023-06-22T09:36:17;9;9;
46681;PMS5003;34101;53.430;-2.224;2023-06-22T09:38:45;8;8;
46681;PMS5003;34101;53.430;-2.224;2023-06-22T09:41:12;9;9;
46681;PMS5003;34101;53.430;-2.224;2023-06-22T09:43:40;11;11;
46681;PMS5003;34101;53.430;-2.224;2023-06-22T09:46:07;9;9;
46681;PMS5003;34101;53.430;-2.224;2023-06-22T09:48:35;8;8;
46681;PMS5003;34101;53.430;-2.224;2023-06-22T09:51:07;10;10;
46681;PMS5003;34101;53.430;-2.224;2023-06-22T09:53:35;9;8;
46681;PMS5003;34101;53.430;-2.224;2023-06-22T09:56:02;9;9;
46681;PMS5003;34101;53.430;-2.224;2023-06-22T09:58:30;13;12;
46681;PMS5003;34101;53.430;-2.224;2023-06-22T10:00:57;12;11;
46681;PMS5003;34101;53.430;-2.224;2023-06-22T10:03:25;7;7;
46681;PMS5003;34101;53.430;-2.224;2023-06-22T10:05:52;6;6;
46681;PMS5003;34101;53.430;-2.224;2023-06-22T10:08:20;5;5;
46681;PMS5003;34101;53.430;-2.224;2023-06-22T10:10:48;6;5;
46681;PMS5003;34101;53.430;-2.224;2023-06-22T10:13:16;6;5;
46681;PMS5003;34101;53.430;-2.224;2023-06-22T10:15:43;6;6;
46681;PMS5003;34101;53.430;-2.224;2023-06-22T10:18:17;6;5;
46681;PMS5003;34101;53.430;-2.224;2023-06-22T10:20:47;5;5;
46681;PMS5003;34101;53.430;-2.224;2023-06-22T10:23:16;6;6;
46681;PMS5003;34101;53.430;-2.224;2023-06-22T10:25:43;3;3;
46681;PMS5003;34101;53.430;-2.224;2023-06-22T10:28:11;6;6;
46681;PMS5003;34101;53.430;-2.224;2023-06-22T10:30:38;6;6;
46681;PMS5003;34101;53.430;-2.224;2023-06-22T10:33:05;6;6;
46681;PMS5003;34101;53.430;-2.224;2023-06-22T10:35:33;8;8;
46681;PMS5003;34101;53.430;-2.224;2023-06-22T10:38:00;8;7;
46681;PMS5003;34101;53.430;-2.224;2023-06-22T10:40:28;6;6;
46681;PMS5003;34101;53.430;-2.224;2023-06-22T10:42:56;6;6;
46681;PMS5003;34101;53.430;-2.224;2023-06-22T10:45:23;6;6;
46681;PMS5003;34101;53.430;-2.224;2023-06-22T10:47:50;6;6;
46681;PMS5003;34101;53.430;-2.224;2023-06-22T10:50:18;8;8;
46681;PMS5003;34101;53.430;-2.224;2023-06-22T10:52:45;7;7;
46681;PMS5003;34101;53.430;-2.224;2023-06-22T10:55:13;5;5;
46681;PMS5003;34101;53.430;-2.224;2023-06-22T10:57:41;5;5;
46681;PMS5003;34101;53.430;-2.224;2023-06-22T11:00:08;6;6;
46681;PMS5003;34101;53.430;-2.224;2023-06-22T11:02:36;5;5;
46681;PMS5003;34101;53.430;-2.224;2023-06-22T11:05:04;5;5;
46681;PMS5003;34101;53.430;-2.224;2023-06-22T11:07:33;6;6;
46681;PMS5003;34101;53.430;-2.224;2023-06-22T11:10:01;6;6;
46681;PMS5003;34101;53.430;-2.224;2023-06-22T11:12:29;6;5;
46681;PMS5003;34101;53.430;-2.224;2023-06-22T11:14:56;7;6;
46681;PMS5003;34101;53.430;-2.224;2023-06-22T11:17:24;6;6;
46681;PMS5003;34101;53.430;-2.224;2023-06-22T11:19:52;5;5;
46681;PMS5003;34101;53.430;-2.224;2023-06-22T11:22:20;5;5;
46681;PMS5003;34101;53.430;-2.224;2023-06-22T11:24:48;6;6;
46681;PMS5003;34101;53.430;-2.224;2023-06-22T11:27:16;4;4;
46681;PMS5003;34101;53.430;-2.224;2023-06-22T11:29:43;7;5;
46681;PMS5003;34101;53.430;-2.224;2023-06-22T11:32:11;7;7;
46681;PMS5003;34101;53.430;-2.224;2023-06-22T11:34:38;4;4;
46681;PMS5003;34101;53.430;-2.224;2023-06-22T11:37:06;4;4;
46681;PMS5003;34101;53.430;-2.224;2023-06-22T11:39:33;5;5;
46681;PMS5003;34101;53.430;-2.224;2023-06-22T11:42:00;6;6;
46681;PMS5003;34101;53.430;-2.224;2023-06-22T11:44:28;5;5;
46681;PMS5003;34101;53.430;-2.224;2023-06-22T11:46:55;6;6;
46681;PMS5003;34101;53.430;-2.224;2023-06-22T11:49:23;6;6;
46681;PMS5003;34101;53.430;-2.224;2023-06-22T11:51:50;6;6;
46681;PMS5003;34101;53.430;-2.224;2023-06-22T11:54:18;4;4;
46681;PMS5003;34101;53.430;-2.224;2023-06-22T11:56:45;5;5;
46681;PMS5003;34101;53.430;-2.224;2023-06-22T11:59:13;4;4;
46681;PMS5003;34101;53.430;-2.224;2023-06-22T12:01:40;5;5;
46681;PMS5003;34101;53.430;-2.224;2023-06-22T12:04:08;8;6;
46681;PMS5003;34101;53.430;-2.224;2023-06-22T12:06:35;5;5;
46681;PMS5003;34101;53.430;-2.224;2023-06-22T12:09:05;5;5;
46681;PMS5003;34101;53.430;-2.224;2023-06-22T12:11:32;5;4;
46681;PMS5003;34101;53.430;-2.224;2023-06-22T12:14:00;6;6;
46681;PMS5003;34101;53.430;-2.224;2023-06-22T12:16:28;5;5;
46681;PMS5003;34101;53.430;-2.224;2023-06-22T12:18:55;6;6;
46681;PMS5003;34101;53.430;-2.224;2023-06-22T12:21:23;8;8;
46681;PMS5003;34101;53.430;-2.224;2023-06-22T12:23:51;6;6;
46681;PMS5003;34101;53.430;-2.224;2023-06-22T12:26:18;6;6;
46681;PMS5003;34101;53.430;-2.224;2023-06-22T12:28:46;5;5;
46681;PMS5003;34101;53.430;-2.224;2023-06-22T12:31:14;6;6;
46681;PMS5003;34101;53.430;-2.224;2023-06-22T12:33:42;7;6;
46681;PMS5003;34101;53.430;-2.224;2023-06-22T12:36:09;5;5;
46681;PMS5003;34101;53.430;-2.224;2023-06-22T12:38:37;6;5;
46681;PMS5003;34101;53.430;-2.224;2023-06-22T12:41:04;5;5;
46681;PMS5003;34101;53.430;-2.224;2023-06-22T12:43:31;6;6;
46681;PMS5003;34101;53.430;-2.224;2023-06-22T12:45:59;6;6;
46681;PMS5003;34101;53.430;-2.224;2023-06-22T12:48:27;5;5;
46681;PMS5003;34101;53.430;-2.224;2023-06-22T12:50:55;6;6;
46681;PMS5003;34101;53.430;-2.224;2023-06-22T12:53:22;6;6;
46681;PMS5003;34101;53.430;-2.224;2023-06-22T12:55:50;6;6;
46681;PMS5003;34101;53.430;-2.224;2023-06-22T12:58:18;6;6;
46681;PMS5003;34101;53.430;-2.224;2023-06-22T13:00:46;6;6;
46681;PMS5003;34101;53.430;-2.224;2023-06-22T13:03:13;5;5;
46681;PMS5003;34101;53.430;-2.224;2023-06-22T13:05:41;5;5;
46681;PMS5003;34101;53.430;-2.224;2023-06-22T13:08:08;5;5;
46681;PMS5003;34101;53.430;-2.224;2023-06-22T13:10:36;8;6;
46681;PMS5003;34101;53.430;-2.224;2023-06-22T13:13:03;6;6;
46681;PMS5003;34101;53.430;-2.224;2023-06-22T13:15:31;7;6;
46681;PMS5003;34101;53.430;-2.224;2023-06-22T13:17:59;8;7;
46681;PMS5003;34101;53.430;-2.224;2023-06-22T13:20:28;6;5;
46681;PMS5003;34101;53.430;-2.224;2023-06-22T13:22:55;6;6;
46681;PMS5003;34101;53.430;-2.224;2023-06-22T13:25:23;6;6;
46681;PMS5003;34101;53.430;-2.224;2023-06-22T13:27:51;5;5;
46681;PMS5003;34101;53.430;-2.224;2023-06-22T13:30:18;6;6;
46681;PMS5003;34101;53.430;-2.224;2023-06-22T13:32:46;4;4;
46681;PMS5003;34101;53.430;-2.224;2023-06-22T13:35:13;5;5;
46681;PMS5003;34101;53.430;-2.224;2023-06-22T13:37:41;2;2;
46681;PMS5003;34101;53.430;-2.224;2023-06-22T13:40:08;6;6;
46681;PMS5003;34101;53.430;-2.224;2023-06-22T13:42:37;7;5;
46681;PMS5003;34101;53.430;-2.224;2023-06-22T13:45:06;5;5;
46681;PMS5003;34101;53.430;-2.224;2023-06-22T13:47:35;6;6;
46681;PMS5003;34101;53.430;-2.224;2023-06-22T13:50:04;4;4;
46681;PMS5003;34101;53.430;-2.224;2023-06-22T13:52:32;5;5;
46681;PMS5003;34101;53.430;-2.224;2023-06-22T13:54:59;7;6;
46681;PMS5003;34101;53.430;-2.224;2023-06-22T13:57:26;5;5;
46681;PMS5003;34101;53.430;-2.224;2023-06-22T13:59:54;6;6;
46681;PMS5003;34101;53.430;-2.224;2023-06-22T14:02:22;6;6;
46681;PMS5003;34101;53.430;-2.224;2023-06-22T14:04:50;7;6;
46681;PMS5003;34101;53.430;-2.224;2023-06-22T14:07:17;5;5;
46681;PMS5003;34101;53.430;-2.224;2023-06-22T14:09:45;7;6;
46681;PMS5003;34101;53.430;-2.224;2023-06-22T14:12:12;9;9;
46681;PMS5003;34101;53.430;-2.224;2023-06-22T14:14:40;7;7;
46681;PMS5003;34101;53.430;-2.224;2023-06-22T14:17:08;7;7;
46681;PMS5003;34101;53.430;-2.224;2023-06-22T14:19:35;6;6;
46681;PMS5003;34101;53.430;-2.224;2023-06-22T14:22:03;6;6;
46681;PMS5003;34101;53.430;-2.224;2023-06-22T14:24:30;6;6;
46681;PMS5003;34101;53.430;-2.224;2023-06-22T14:26:58;5;5;
46681;PMS5003;34101;53.430;-2.224;2023-06-22T14:29:25;5;5;
46681;PMS5003;34101;53.430;-2.224;2023-06-22T14:31:53;4;4;
46681;PMS5003;34101;53.430;-2.224;2023-06-22T14:34:22;4;4;
46681;PMS5003;34101;53.430;-2.224;2023-06-22T14:36:49;8;6;
46681;PMS5003;34101;53.430;-2.224;2023-06-22T14:39:17;3;3;
46681;PMS5003;34101;53.430;-2.224;2023-06-22T14:41:44;4;4;
46681;PMS5003;34101;53.430;-2.224;2023-06-22T14:44:13;4;4;
46681;PMS5003;34101;53.430;-2.224;2023-06-22T14:46:40;6;6;
46681;PMS5003;34101;53.430;-2.224;2023-06-22T14:49:07;5;5;
46681;PMS5003;34101;53.430;-2.224;2023-06-22T14:51:35;6;6;
46681;PMS5003;34101;53.430;-2.224;2023-06-22T14:54:02;6;6;
46681;PMS5003;34101;53.430;-2.224;2023-06-22T14:56:30;5;5;
46681;PMS5003;34101;53.430;-2.224;2023-06-22T14:58:57;5;5;
46681;PMS5003;34101;53.430;-2.224;2023-06-22T15:01:25;9;7;
46681;PMS5003;34101;53.430;-2.224;2023-06-22T15:03:52;6;6;
46681;PMS5003;34101;53.430;-2.224;2023-06-22T15:06:20;6;6;
46681;PMS5003;34101;53.430;-2.224;2023-06-22T15:08:48;6;6;
46681;PMS5003;34101;53.430;-2.224;2023-06-22T15:11:15;6;6;
46681;PMS5003;34101;53.430;-2.224;2023-06-22T15:13:43;5;5;
46681;PMS5003;34101;53.430;-2.224;2023-06-22T15:16:11;6;6;
46681;PMS5003;34101;53.430;-2.224;2023-06-22T15:18:39;6;6;
46681;PMS5003;34101;53.430;-2.224;2023-06-22T15:21:06;6;6;
46681;PMS5003;34101;53.430;-2.224;2023-06-22T15:23:34;8;8;
46681;PMS5003;34101;53.430;-2.224;2023-06-22T15:26:02;7;7;
46681;PMS5003;34101;53.430;-2.224;2023-06-22T15:28:30;7;7;
46681;PMS5003;34101;53.430;-2.224;2023-06-22T15:30:57;10;8;
46681;PMS5003;34101;53.430;-2.224;2023-06-22T15:33:25;6;6;
46681;PMS5003;34101;53.430;-2.224;2023-06-22T15:35:52;6;5;
46681;PMS5003;34101;53.430;-2.224;2023-06-22T15:38:20;8;7;
46681;PMS5003;34101;53.430;-2.224;2023-06-22T15:40:48;9;6;
46681;PMS5003;34101;53.430;-2.224;2023-06-22T15:43:15;6;6;
46681;PMS5003;34101;53.430;-2.224;2023-06-22T15:45:43;5;5;
46681;PMS5003;34101;53.430;-2.224;2023-06-22T15:48:10;6;6;
46681;PMS5003;34101;53.430;-2.224;2023-06-22T15:50:38;7;7;
46681;PMS5003;34101;53.430;-2.224;2023-06-22T15:53:05;6;6;
46681;PMS5003;34101;53.430;-2.224;2023-06-22T15:55:38;7;7;
46681;PMS5003;34101;53.430;-2.224;2023-06-22T15:58:06;6;6;
46681;PMS5003;34101;53.430;-2.224;2023-06-22T16:00:34;5;5;
46681;PMS5003;34101;53.430;-2.224;2023-06-22T16:03:01;6;5;
46681;PMS5003;34101;53.430;-2.224;2023-06-22T16:05:29;5;5;
46681;PMS5003;34101;53.430;-2.224;2023-06-22T16:07:56;4;4;
46681;PMS5003;34101;53.430;-2.224;2023-06-22T16:10:24;6;6;
46681;PMS5003;34101;53.430;-2.224;2023-06-22T16:12:52;7;6;
46681;PMS5003;34101;53.430;-2.224;2023-06-22T16:15:20;7;7;
46681;PMS5003;34101;53.430;-2.224;2023-06-22T16:17:48;5;5;
46681;PMS5003;34101;53.430;-2.224;2023-06-22T16:20:16;8;6;
46681;PMS5003;34101;53.430;-2.224;2023-06-22T16:22:49;6;5;
46681;PMS5003;34101;53.430;-2.224;2023-06-22T16:25:16;4;4;
46681;PMS5003;34101;53.430;-2.224;2023-06-22T16:27:44;6;6;
46681;PMS5003;34101;53.430;-2.224;2023-06-22T16:30:11;7;7;
46681;PMS5003;34101;53.430;-2.224;2023-06-22T16:32:39;6;6;